Time;durP1;ratioP1;P1;durP2;ratioP2;P2;SDS_P1;SDS_P2;PMS_P1;PMS_P2;Temp;Humidity;BMP_temperature;BMP_pressure;BME280_temperature;BME280_humidity;BME280_pressure;Samples;Min_cycle;Max_cycle;Signal;HPM_P1;HPM_P2
2021/03/08 00:02:18;;;;;;;44.00;22.13;;;;;;;4.49;62.11;102350.72;4957850;28;20066;-76
2021/03/08 00:04:44;;;;;;;44.08;23.35;;;;;;;4.48;61.56;102343.81;4951765;28;20126;-75
2021/03/08 00:07:10;;;;;;;42.38;23.70;;;;;;;4.51;62.35;102351.50;4943683;28;20094;-76
2021/03/08 00:09:38;;;;;;;44.47;22.80;;;;;;;4.35;62.27;102328.78;4956992;28;20094;-76
2021/03/08 00:12:06;;;;;;;48.95;25.67;;;;;;;4.38;62.80;102347.75;4962796;28;20055;-76
2021/03/08 00:14:32;;;;;;;42.47;22.40;;;;;;;4.44;62.29;102348.31;4956045;28;20055;-76
2021/03/08 00:16:59;;;;;;;49.38;25.58;;;;;;;4.45;62.84;102343.94;4962004;28;20063;-76
2021/03/08 00:19:25;;;;;;;43.38;23.23;;;;;;;4.44;62.55;102347.47;4940205;28;20058;-76
2021/03/08 00:21:51;;;;;;;45.63;23.02;;;;;;;4.40;62.86;102349.34;4957403;28;20094;-75
2021/03/08 00:24:17;;;;;;;42.05;22.00;;;;;;;4.35;63.06;102339.19;4966355;28;20388;-76
2021/03/08 00:26:43;;;;;;;46.58;22.95;;;;;;;4.37;62.69;102333.91;4958378;28;20216;-75
2021/03/08 00:29:13;;;;;;;39.72;21.95;;;;;;;4.36;62.76;102332.22;4956594;28;20077;-75
2021/03/08 00:31:39;;;;;;;44.38;22.60;;;;;;;4.44;62.66;102345.72;4944855;28;20390;-75
2021/03/08 00:34:06;;;;;;;48.50;22.73;;;;;;;4.41;62.51;102338.06;4957866;28;20145;-75
2021/03/08 00:36:32;;;;;;;44.95;23.80;;;;;;;4.45;62.85;102338.75;4961308;28;20066;-75
2021/03/08 00:38:58;;;;;;;44.97;22.55;;;;;;;4.43;62.99;102331.06;4953086;28;20075;-75
2021/03/08 00:41:24;;;;;;;43.00;21.83;;;;;;;4.41;62.60;102337.22;4965126;28;20086;-75
2021/03/08 00:43:50;;;;;;;43.35;22.55;;;;;;;4.41;62.94;102339.81;4934752;28;20154;-75
2021/03/08 00:46:16;;;;;;;43.28;22.10;;;;;;;4.39;63.51;102342.50;4950708;28;20141;-75
2021/03/08 00:48:43;;;;;;;45.83;21.60;;;;;;;4.43;62.87;102341.44;4954752;28;20067;-76
2021/03/08 00:51:09;;;;;;;44.88;23.30;;;;;;;4.46;62.80;102340.44;4940952;28;20153;-76
2021/03/08 00:53:35;;;;;;;49.78;23.48;;;;;;;4.49;62.67;102342.91;4954061;28;20555;-75
2021/03/08 00:56:01;;;;;;;48.97;23.33;;;;;;;4.46;62.86;102338.69;4954120;28;20066;-75
2021/03/08 00:58:27;;;;;;;41.20;22.10;;;;;;;4.49;62.38;102343.75;4967743;28;20065;-76
2021/03/08 01:00:53;;;;;;;43.10;22.50;;;;;;;4.46;62.49;102345.66;4938398;28;20060;-76
2021/03/08 01:03:20;;;;;;;42.75;22.58;;;;;;;4.45;63.00;102339.63;4960719;28;20133;-75
2021/03/08 01:05:46;;;;;;;44.83;23.42;;;;;;;4.44;62.76;102340.50;4937196;28;20482;-75
2021/03/08 01:08:12;;;;;;;43.78;21.40;;;;;;;4.43;63.03;102327.59;4954761;28;20062;-75
2021/03/08 01:10:38;;;;;;;44.25;23.23;;;;;;;4.42;62.65;102338.91;4963550;28;20479;-75
2021/03/08 01:13:04;;;;;;;47.50;21.95;;;;;;;4.49;62.72;102335.97;4960412;28;20062;-75
2021/03/08 01:15:30;;;;;;;47.72;23.98;;;;;;;4.41;62.90;102338.06;4942819;28;20113;-75
2021/03/08 01:17:56;;;;;;;42.90;22.27;;;;;;;4.45;62.76;102337.00;4941445;28;20062;-75
2021/03/08 01:20:22;;;;;;;54.60;24.60;;;;;;;4.49;62.68;102338.56;4965898;28;20142;-75
2021/03/08 01:22:49;;;;;;;44.95;22.50;;;;;;;4.46;63.13;102332.66;4958359;28;22236;-76
2021/03/08 01:25:27;;;;;;;57.70;27.60;;;;;;;4.52;63.02;102341.00;4968488;28;20093;-75
2021/03/08 01:27:53;;;;;;;44.70;23.20;;;;;;;4.56;62.75;102339.94;4957619;28;20626;-75
2021/03/08 01:30:23;;;;;;;45.22;23.15;;;;;;;4.48;62.79;102316.06;4947627;28;20093;-75
2021/03/08 01:32:49;;;;;;;45.63;23.80;;;;;;;4.54;62.63;102330.53;4964045;28;20098;-75
2021/03/08 01:35:16;;;;;;;48.72;23.95;;;;;;;4.56;62.90;102326.13;4945641;28;20120;-76
2021/03/08 01:37:42;;;;;;;50.13;23.35;;;;;;;4.49;62.51;102322.13;4969209;28;20078;-76
2021/03/08 01:40:10;;;;;;;54.78;22.67;;;;;;;4.55;62.58;102329.66;4963286;28;20074;-76
2021/03/08 01:42:38;;;;;;;48.33;23.33;;;;;;;4.52;62.67;102322.81;4964252;28;20126;-76
2021/03/08 01:45:10;;;;;;;54.97;23.63;;;;;;;4.57;62.62;102325.22;4941775;28;20050;-76
2021/03/08 01:47:37;;;;;;;48.83;24.08;;;;;;;4.50;62.59;102311.66;4951006;28;20609;-76
2021/03/08 01:50:06;;;;;;;52.50;24.33;;;;;;;4.42;62.91;102308.56;4945168;28;20077;-76
2021/03/08 01:52:32;;;;;;;51.25;23.60;;;;;;;4.34;63.15;102295.09;4970832;28;20129;-76
2021/03/08 01:54:58;;;;;;;52.05;25.13;;;;;;;4.44;62.94;102309.34;4967962;28;20126;-76
2021/03/08 01:57:24;;;;;;;50.83;24.60;;;;;;;4.49;63.06;102319.53;4942159;28;20058;-76
2021/03/08 01:59:51;;;;;;;55.33;25.08;;;;;;;4.44;63.02;102314.53;4950735;28;20066;-76
2021/03/08 02:02:17;;;;;;;49.45;25.88;;;;;;;4.41;63.38;102311.22;4961807;28;20161;-76
2021/03/08 02:04:43;;;;;;;48.13;24.15;;;;;;;4.37;63.36;102294.94;4964204;28;20061;-75
2021/03/08 02:07:09;;;;;;;53.33;25.50;;;;;;;4.41;62.92;102304.28;4962581;28;20507;-75
2021/03/08 02:09:35;;;;;;;53.95;24.33;;;;;;;4.43;63.04;102301.59;4946245;28;20059;-75
2021/03/08 02:12:18;;;;;;;51.67;24.80;;;;;;;4.20;63.48;102267.13;4956328;28;20086;-76
2021/03/08 02:15:11;;;;;;;46.28;25.48;;;;;;;4.36;63.42;102295.84;4931251;28;20143;-76
2021/03/08 02:17:44;;;;;;;51.80;25.25;;;;;;;4.37;63.11;102294.94;4959526;28;20110;-75
2021/03/08 02:20:22;;;;;;;45.20;24.58;;;;;;;4.36;63.45;102295.84;4967845;28;20093;-76
2021/03/08 02:23:06;;;;;;;50.92;24.88;;;;;;;4.38;63.75;102293.19;4952201;28;20800;-76
2021/03/08 02:26:18;;;;;;;51.67;25.80;;;;;;;4.37;64.11;102292.31;4944052;28;20077;-76
2021/03/08 02:28:47;;;;;;;51.40;25.80;;;;;;;4.38;63.70;102298.38;4963419;28;20129;-75
2021/03/08 02:31:15;;;;;;;;;;;;;;;4.36;63.79;102299.28;4967621;28;20063;-75
2021/03/08 02:33:50;;;;;;;54.75;26.05;;;;;;;4.27;63.42;102288.47;4945810;28;19977;-75
2021/03/08 02:36:49;;;;;;;51.92;25.30;;;;;;;4.32;63.94;102300.34;4951656;28;20124;-75
2021/03/08 02:39:22;;;;;;;60.58;26.38;;;;;;;4.30;63.88;102294.38;4967516;28;20726;-75
2021/03/08 02:41:52;;;;;;;54.35;25.63;;;;;;;4.36;63.63;102294.09;4960070;28;20062;-75
2021/03/08 02:44:22;;;;;;;58.90;27.35;;;;;;;4.35;63.79;102283.75;4966576;28;20086;-75
2021/03/08 02:46:50;;;;;;;55.92;25.08;;;;;;;4.35;63.57;102288.97;4957790;28;20094;-74
2021/03/08 02:49:22;;;;;;;54.10;27.13;;;;;;;4.34;63.81;102288.13;4946674;28;20113;-75
2021/03/08 02:51:56;;;;;;;54.55;27.45;;;;;;;4.31;63.52;102272.69;4967361;28;20093;-75
2021/03/08 02:54:25;;;;;;;56.88;27.10;;;;;;;4.32;64.28;102279.56;4968041;28;20051;-74
2021/03/08 02:56:55;;;;;;;55.55;26.45;;;;;;;4.35;64.21;102283.75;4953650;28;20463;-74
2021/03/08 02:59:24;;;;;;;58.67;27.45;;;;;;;4.34;63.85;102279.50;4970872;28;20807;-74
2021/03/08 03:01:51;;;;;;;56.92;27.38;;;;;;;4.34;64.01;102285.53;4941402;28;20066;-74
2021/03/08 03:04:21;;;;;;;59.95;29.45;;;;;;;4.30;64.45;102275.34;4933670;28;20113;-74
2021/03/08 03:06:48;;;;;;;57.30;27.50;;;;;;;4.32;64.10;102274.38;4948992;28;20160;-75
2021/03/08 03:09:16;;;;;;;60.05;29.02;;;;;;;4.29;64.30;102269.31;4942421;28;20095;-74
2021/03/08 03:11:48;;;;;;;62.58;28.27;;;;;;;4.30;64.29;102280.56;4959342;28;20066;-76
2021/03/08 03:14:16;;;;;;;57.85;28.38;;;;;;;4.12;64.38;102267.47;4947804;28;20090;-74
2021/03/08 03:16:44;;;;;;;59.15;28.63;;;;;;;4.24;64.32;102281.66;4958127;28;20086;-74
2021/03/08 03:19:11;;;;;;;57.38;28.88;;;;;;;4.23;63.97;102282.56;4950213;28;20419;-74
2021/03/08 03:21:41;;;;;;;61.55;30.58;;;;;;;4.18;64.52;102273.31;4962522;28;20136;-73
2021/03/08 03:24:09;;;;;;;63.53;29.35;;;;;;;4.17;64.29;102267.25;4963437;28;20086;-74
2021/03/08 03:26:36;;;;;;;62.85;30.52;;;;;;;4.21;64.40;102276.59;4957202;28;20121;-74
2021/03/08 03:29:05;;;;;;;60.38;29.38;;;;;;;4.25;64.55;102272.13;4966729;28;20581;-74
2021/03/08 03:31:37;;;;;;;59.47;28.17;;;;;;;4.25;64.45;102272.13;4961206;28;20089;-74
2021/03/08 03:34:04;;;;;;;69.57;30.27;;;;;;;4.22;64.82;102272.28;4954171;28;20497;-75
2021/03/08 03:36:37;;;;;;;61.20;30.38;;;;;;;4.23;64.61;102264.38;4961155;28;20137;-74
2021/03/08 03:39:10;;;;;;;66.63;30.77;;;;;;;4.11;64.80;102272.75;4955930;28;20093;-74
2021/03/08 03:41:36;;;;;;;61.47;28.90;;;;;;;4.02;65.11;102270.53;4960448;28;20054;-74
2021/03/08 03:44:02;;;;;;;65.55;32.30;;;;;;;4.01;65.16;102269.72;4931975;28;20055;-74
2021/03/08 03:46:29;;;;;;;66.82;31.20;;;;;;;3.97;65.28;102271.59;4957195;28;20117;-74
2021/03/08 03:48:56;;;;;;;73.05;32.70;;;;;;;3.93;64.96;102274.41;4950251;28;20142;-74
2021/03/08 03:51:22;;;;;;;65.38;31.73;;;;;;;3.95;65.26;102275.19;4950326;28;20055;-76
2021/03/08 03:53:48;;;;;;;68.50;30.77;;;;;;;3.91;65.65;102284.00;4944943;28;20138;-74
2021/03/08 03:56:17;;;;;;;65.75;30.48;;;;;;;3.92;65.38;102281.34;4954285;28;20058;-74
2021/03/08 03:58:58;;;;;;;62.33;29.25;;;;;;;3.98;65.85;102285.44;4959634;28;20142;-75
2021/03/08 04:01:33;;;;;;;67.00;31.58;;;;;;;4.02;65.61;102283.53;4957649;28;20553;-74
2021/03/08 04:04:14;;;;;;;67.80;32.35;;;;;;;4.02;65.39;102275.72;4959898;28;20144;-74
2021/03/08 04:06:46;;;;;;;66.60;32.40;;;;;;;3.93;65.94;102266.63;4939661;29;20122;-75
2021/03/08 04:09:14;;;;;;;64.00;31.48;;;;;;;3.92;65.96;102275.28;4960338;28;20062;-74
2021/03/08 04:11:42;;;;;;;67.00;31.13;;;;;;;3.98;65.56;102280.25;4964310;28;20090;-76
2021/03/08 04:14:14;;;;;;;67.53;32.47;;;;;;;4.03;65.91;102283.47;4932062;29;20125;-74
2021/03/08 04:16:43;;;;;;;63.90;30.50;;;;;;;4.01;65.82;102282.69;4949354;28;20462;-75
2021/03/08 04:19:13;;;;;;;63.20;31.23;;;;;;;3.93;65.67;102282.19;4959621;28;20955;-74
2021/03/08 04:21:40;;;;;;;70.10;32.90;;;;;;;3.94;65.89;102284.72;4935848;28;20094;-74
2021/03/08 04:24:08;;;;;;;65.75;30.58;;;;;;;3.93;65.91;102290.81;4947108;28;20095;-75
2021/03/08 04:26:39;;;;;;;70.17;30.90;;;;;;;3.95;65.81;102290.75;4960589;28;20500;-75
2021/03/08 04:29:07;;;;;;;71.07;31.38;;;;;;;3.96;66.22;102288.09;4965743;28;20289;-74
2021/03/08 04:31:34;;;;;;;70.90;31.57;;;;;;;4.01;65.99;102295.69;4951603;28;20149;-75
2021/03/08 04:34:03;;;;;;;66.50;31.75;;;;;;;3.98;66.44;102295.81;4927531;28;20711;-74
2021/03/08 04:36:30;;;;;;;66.18;31.30;;;;;;;3.99;66.36;102296.66;4943915;28;20494;-75
2021/03/08 04:38:56;;;;;;;68.63;31.60;;;;;;;3.94;66.25;102295.13;4960242;28;20149;-75
2021/03/08 04:41:26;;;;;;;69.97;31.70;;;;;;;3.94;66.17;102294.28;4948193;28;20093;-75
2021/03/08 04:43:54;;;;;;;67.75;31.58;;;;;;;4.00;66.66;102304.38;4959401;28;20093;-75
2021/03/08 04:46:21;;;;;;;63.15;31.60;;;;;;;3.99;65.99;102301.84;4964088;28;20506;-76
2021/03/08 04:48:48;;;;;;;67.07;31.33;;;;;;;3.98;66.50;102301.03;4954214;28;20511;-74
2021/03/08 04:51:16;;;;;;;64.40;30.63;;;;;;;4.04;66.15;102305.06;4967289;28;20258;-75
2021/03/08 04:53:43;;;;;;;64.87;31.90;;;;;;;4.04;66.20;102303.34;4965397;28;20150;-75
2021/03/08 04:56:26;;;;;;;66.82;31.80;;;;;;;4.07;66.42;102304.94;4945282;28;20073;-75
2021/03/08 04:58:52;;;;;;;72.28;32.08;;;;;;;4.05;66.90;102304.19;4953437;28;20094;-75
2021/03/08 05:01:18;;;;;;;65.40;32.38;;;;;;;4.06;66.43;102298.91;4943160;28;20062;-75
2021/03/08 05:03:46;;;;;;;58.78;29.25;;;;;;;4.06;66.44;102301.53;4945429;28;20688;-76
2021/03/08 05:06:15;;;;;;;63.10;31.02;;;;;;;4.03;66.51;102291.25;4961091;28;20059;-76
2021/03/08 05:08:42;;;;;;;63.60;31.83;;;;;;;4.12;66.03;102306.44;4952030;28;20125;-76
2021/03/08 05:11:11;;;;;;;72.90;32.00;;;;;;;4.09;66.39;102310.91;4963566;28;20165;-76
2021/03/08 05:13:38;;;;;;;69.32;29.88;;;;;;;4.15;65.91;102300.25;4968282;28;20050;-76
2021/03/08 05:16:08;;;;;;;60.67;30.48;;;;;;;4.14;66.59;102298.59;4941609;28;20063;-76
2021/03/08 05:18:37;;;;;;;55.45;28.17;;;;;;;4.18;66.23;102305.31;4942748;28;20058;-76
2021/03/08 05:21:03;;;;;;;64.85;31.33;;;;;;;4.19;66.00;102308.75;4969261;28;20124;-76
2021/03/08 05:23:30;;;;;;;64.47;31.40;;;;;;;4.14;65.95;102299.41;4960494;28;20494;-74
2021/03/08 05:26:00;;;;;;;58.85;30.05;;;;;;;4.12;66.22;102305.59;4951357;28;20063;-74
2021/03/08 05:28:27;;;;;;;62.00;29.40;;;;;;;4.14;66.45;102306.38;4954289;28;20149;-74
2021/03/08 05:30:55;;;;;;;65.43;29.40;;;;;;;4.15;65.92;102297.66;4963033;28;20113;-75
2021/03/08 05:33:23;;;;;;;;;;;;;;;4.22;66.41;102314.66;4937323;28;20119;-74
2021/03/08 05:35:53;;;;;;;69.65;30.58;;;;;;;4.21;66.40;102306.94;4965562;28;19969;-74
2021/03/08 05:38:24;;;;;;;62.38;30.55;;;;;;;4.20;66.22;102310.47;4968413;28;20054;-75
2021/03/08 05:40:52;;;;;;;67.28;31.48;;;;;;;4.22;66.02;102312.06;4958434;28;20094;-75
2021/03/08 05:43:20;;;;;;;69.15;31.38;;;;;;;4.22;66.20;102306.03;4941535;28;20055;-75
2021/03/08 05:46:05;;;;;;;58.45;30.05;;;;;;;4.23;66.11;102299.91;4959460;28;20062;-75
2021/03/08 05:49:08;;;;;;;58.35;29.33;;;;;;;4.23;65.80;102310.31;4951427;28;20109;-75
2021/03/08 05:51:56;;;;;;;65.45;27.67;;;;;;;4.27;65.77;102314.44;4968062;28;20058;-74
2021/03/08 05:54:40;;;;;;;61.28;29.30;;;;;;;4.28;65.34;102318.75;4968939;28;20055;-74
2021/03/08 05:57:26;;;;;;;63.35;29.90;;;;;;;4.26;65.81;102318.81;4941391;28;20420;-75
2021/03/08 06:00:13;;;;;;;60.65;28.90;;;;;;;4.23;65.99;102325.88;4945409;28;20145;-75
2021/03/08 06:02:52;;;;;;;58.15;28.83;;;;;;;4.28;65.66;102321.34;4944873;28;20047;-75
2021/03/08 06:05:24;;;;;;;;;;;;;;;4.29;65.67;102321.28;4965325;28;20439;-75
2021/03/08 06:08:12;;;;;;;61.38;29.48;;;;;;;4.27;65.81;102323.09;4944605;28;19925;-75
2021/03/08 06:10:47;;;;;;;59.00;30.25;;;;;;;4.29;65.98;102325.59;4961163;28;20126;-75
2021/03/08 06:13:17;;;;;;;66.10;30.73;;;;;;;4.25;65.79;102319.69;4935297;28;20050;-75
2021/03/08 06:15:50;;;;;;;61.95;30.40;;;;;;;4.26;65.99;102328.34;4965688;28;20073;-74
2021/03/08 06:18:16;;;;;;;64.00;29.42;;;;;;;4.33;65.89;102325.41;4945510;28;20071;-75
2021/03/08 06:20:43;;;;;;;70.93;31.70;;;;;;;4.29;65.65;102334.28;4964439;28;20065;-75
2021/03/08 06:23:10;;;;;;;66.57;31.05;;;;;;;4.35;65.74;102333.13;4959953;28;20150;-74
2021/03/08 06:25:39;;;;;;;61.92;30.63;;;;;;;4.35;65.80;102333.13;4964451;28;20129;-74
2021/03/08 06:28:09;;;;;;;60.38;29.88;;;;;;;4.33;65.75;102335.81;4967537;28;20058;-74
2021/03/08 06:30:35;;;;;;;59.97;30.73;;;;;;;4.39;65.81;102331.22;4961533;28;20661;-75
2021/03/08 06:33:01;;;;;;;64.28;30.15;;;;;;;4.40;65.72;102331.19;4965149;28;20109;-74
2021/03/08 06:35:27;;;;;;;69.50;31.20;;;;;;;4.45;65.86;102329.22;4956774;28;20149;-75
2021/03/08 06:37:55;;;;;;;63.13;30.75;;;;;;;4.49;65.94;102333.38;4943443;28;20138;-75
2021/03/08 06:40:24;;;;;;;64.63;32.10;;;;;;;4.46;66.12;102332.66;4954024;28;20055;-75
2021/03/08 06:42:51;;;;;;;68.40;31.60;;;;;;;4.46;65.78;102330.91;4963258;28;20485;-75
2021/03/08 06:45:18;;;;;;;69.18;31.02;;;;;;;4.47;66.24;102335.19;4967285;28;20082;-75
2021/03/08 06:47:44;;;;;;;70.47;33.25;;;;;;;4.46;66.24;102333.50;4961402;28;20148;-75
2021/03/08 06:50:11;;;;;;;75.78;33.22;;;;;;;4.37;66.18;102328.69;4961018;28;20061;-75
2021/03/08 06:52:42;;;;;;;75.47;34.20;;;;;;;4.43;66.35;102341.44;4934639;28;20059;-73
2021/03/08 06:55:09;;;;;;;82.68;32.67;;;;;;;4.43;66.25;102331.06;4958199;28;20047;-76
2021/03/08 06:57:36;;;;;;;71.45;32.05;;;;;;;4.46;65.91;102340.44;4955905;28;20062;-74
2021/03/08 07:00:09;;;;;;;78.88;32.15;;;;;;;4.48;66.15;102341.22;4949605;28;20145;-73
2021/03/08 07:06:54;;;;;;;78.32;32.28;;;;;;;4.58;66.20;102350.28;4954982;28;20057;-74
2021/03/08 07:09:21;;;;;;;65.20;31.52;;;;;;;4.54;65.97;102344.38;4959135;28;20050;-74
2021/03/08 07:12:06;;;;;;;67.20;32.38;;;;;;;4.60;66.15;102345.84;4965612;28;20086;-74
2021/03/08 07:14:33;;;;;;;70.13;32.30;;;;;;;4.63;65.97;102343.13;4955069;28;20054;-74
2021/03/08 07:17:00;;;;;;;69.47;32.28;;;;;;;4.64;65.97;102347.41;4949311;28;20168;-74
2021/03/08 07:19:26;;;;;;;69.82;32.28;;;;;;;4.74;65.76;102353.00;4961377;28;20062;-74
2021/03/08 07:21:52;;;;;;;64.15;32.72;;;;;;;4.78;66.20;102358.91;4941677;28;20125;-74
2021/03/08 07:24:19;;;;;;;66.78;32.70;;;;;;;4.77;65.58;102349.44;4944238;28;20519;-74
2021/03/08 07:26:53;;;;;;;68.88;33.05;;;;;;;4.81;65.06;102359.63;4952783;28;20438;-74
2021/03/08 07:29:21;;;;;;;65.95;31.73;;;;;;;4.79;65.27;102348.47;4949458;28;20577;-74
2021/03/08 07:31:53;;;;;;;66.87;31.37;;;;;;;4.84;65.20;102356.03;4947956;28;20512;-74
2021/03/08 07:34:46;;;;;;;65.90;32.58;;;;;;;4.86;65.03;102356.81;4955051;28;20073;-75
2021/03/08 07:37:13;;;;;;;67.80;31.48;;;;;;;4.87;64.71;102356.75;4960410;28;20066;-74
2021/03/08 07:39:50;;;;;;;69.88;32.00;;;;;;;4.83;65.48;102352.59;4967862;28;20059;-74
2021/03/08 07:42:16;;;;;;;69.85;34.22;;;;;;;4.83;65.04;102356.97;4960197;28;20169;-74
2021/03/08 07:44:51;;;;;;;65.45;31.88;;;;;;;4.91;64.89;102360.03;4961627;28;20066;-74
2021/03/08 07:47:18;;;;;;;65.72;33.05;;;;;;;4.98;65.10;102361.44;4962324;28;20071;-73
2021/03/08 07:49:45;;;;;;;66.03;31.83;;;;;;;5.00;64.54;102363.94;4959378;28;20054;-73
2021/03/08 07:52:14;;;;;;;68.47;32.30;;;;;;;5.08;64.54;102373.09;4975063;28;20486;-74
2021/03/08 07:54:57;;;;;;;61.65;32.45;;;;;;;5.07;64.64;102367.97;4943023;28;20114;-73
2021/03/08 07:57:26;;;;;;;73.20;31.35;;;;;;;5.12;64.38;102366.00;4958678;28;20059;-73
2021/03/08 07:59:52;;;;;;;73.97;32.55;;;;;;;5.22;64.75;102371.59;4955149;28;20578;-74
2021/03/08 08:02:18;;;;;;;60.72;28.63;;;;;;;5.22;64.13;102369.00;4963049;28;20058;-74
2021/03/08 08:04:59;;;;;;;63.40;31.30;;;;;;;5.24;64.57;102360.19;4960348;28;20121;-74
2021/03/08 08:07:26;;;;;;;69.47;31.85;;;;;;;5.38;64.47;102374.31;4966351;28;20051;-73
2021/03/08 08:09:55;;;;;;;67.15;33.30;;;;;;;5.35;63.87;102367.47;4966490;28;20058;-74
2021/03/08 08:12:28;;;;;;;65.20;31.27;;;;;;;5.47;64.12;102379.91;4955939;28;20058;-74
2021/03/08 08:14:55;;;;;;;66.22;33.22;;;;;;;5.52;63.95;102374.47;4941515;28;20087;-74
2021/03/08 08:17:22;;;;;;;68.63;33.83;;;;;;;5.60;63.81;102374.09;4958433;28;20082;-74
2021/03/08 08:19:50;;;;;;;65.90;31.20;;;;;;;5.59;63.50;102372.41;4965833;28;20093;-74
2021/03/08 08:22:20;;;;;;;64.30;30.92;;;;;;;5.64;63.26;102370.41;4959149;28;20067;-74
2021/03/08 08:24:53;;;;;;;66.78;33.20;;;;;;;5.73;63.22;102377.78;4965443;28;20118;-74
2021/03/08 08:27:20;;;;;;;70.15;31.83;;;;;;;5.74;63.38;102366.41;4955164;28;20062;-73
2021/03/08 08:29:48;;;;;;;68.22;32.80;;;;;;;5.86;63.11;102375.38;4951008;28;20065;-73
2021/03/08 08:32:15;;;;;;;68.45;31.50;;;;;;;5.92;63.56;102377.69;4964858;28;20145;-74
2021/03/08 08:34:45;;;;;;;68.78;33.10;;;;;;;5.97;63.18;102369.66;4959363;28;20058;-74
2021/03/08 08:37:22;;;;;;;60.50;31.70;;;;;;;5.96;62.82;102368.84;4965973;28;20086;-74
2021/03/08 08:39:51;;;;;;;65.13;32.50;;;;;;;5.96;62.36;102378.38;4970153;28;20082;-74
2021/03/08 08:42:25;;;;;;;69.63;31.73;;;;;;;5.90;61.99;102366.50;4959532;28;20519;-74
2021/03/08 08:45:27;;;;;;;75.55;32.33;;;;;;;5.99;62.40;102365.22;4958808;28;20057;-73
2021/03/08 08:48:03;;;;;;;71.75;31.70;;;;;;;5.87;61.99;102366.66;4964709;28;20087;-73
2021/03/08 08:50:43;;;;;;;58.08;29.77;;;;;;;5.91;62.36;102373.41;4959908;28;20090;-73
2021/03/08 08:53:09;;;;;;;64.03;32.40;;;;;;;5.91;62.78;102369.03;4948206;28;20059;-73
2021/03/08 08:55:35;;;;;;;67.03;33.05;;;;;;;5.88;62.56;102387.41;4954661;28;20443;-73
2021/03/08 08:58:25;;;;;;;63.90;31.55;;;;;;;5.96;62.58;102376.66;4954003;28;20434;-73
2021/03/08 09:01:10;;;;;;;61.80;31.80;;;;;;;6.05;62.85;102378.75;4949836;28;20740;-73
2021/03/08 09:04:00;;;;;;;64.00;30.48;;;;;;;5.99;61.76;102378.25;4961492;28;20062;-73
2021/03/08 09:06:48;;;;;;;76.43;33.25;;;;;;;6.03;61.64;102380.59;4953080;28;20407;-73
2021/03/08 09:09:30;;;;;;;61.60;31.20;;;;;;;6.13;61.94;102386.19;4961438;28;20063;-73
2021/03/08 09:12:07;;;;;;;59.50;29.83;;;;;;;6.08;62.17;102380.38;4939276;28;20523;-72
2021/03/08 09:14:47;;;;;;;68.72;32.28;;;;;;;6.17;62.11;102382.50;4965332;28;20480;-72
2021/03/08 09:17:17;;;;;;;59.35;29.50;;;;;;;6.21;62.25;102380.59;4933245;28;20054;-73
2021/03/08 09:20:04;;;;;;;66.22;30.30;;;;;;;6.27;62.30;102385.47;4955916;28;20063;-73
2021/03/08 09:22:33;;;;;;;59.10;30.23;;;;;;;6.37;62.31;102381.47;4939497;28;20613;-73
2021/03/08 09:24:59;;;;;;;62.88;30.88;;;;;;;6.33;61.68;102385.16;4935079;28;20110;-74
2021/03/08 09:27:33;;;;;;;60.38;30.52;;;;;;;6.24;61.96;102377.84;4952752;28;20063;-73
2021/03/08 09:30:06;;;;;;;58.28;29.58;;;;;;;6.29;62.05;102378.41;4939001;28;20104;-73
2021/03/08 09:32:33;;;;;;;63.67;30.02;;;;;;;6.34;61.88;102368.59;4959944;28;20055;-73
2021/03/08 09:35:02;;;;;;;62.10;31.13;;;;;;;6.36;62.24;102364.16;4949965;28;20062;-73
2021/03/08 09:37:30;;;;;;;65.45;30.42;;;;;;;6.44;61.57;102367.19;4959552;28;20566;-73
2021/03/08 09:39:57;;;;;;;58.97;30.33;;;;;;;6.48;61.89;102363.50;4969495;28;20129;-73
2021/03/08 09:42:24;;;;;;;58.75;29.83;;;;;;;6.55;61.73;102356.19;4964418;28;20102;-73
2021/03/08 09:44:50;;;;;;;58.70;30.17;;;;;;;6.69;61.78;102368.50;4948559;28;20109;-75
2021/03/08 09:47:17;;;;;;;63.55;30.60;;;;;;;6.71;61.24;102351.81;4945620;28;20074;-73
2021/03/08 09:49:50;;;;;;;63.15;28.85;;;;;;;6.77;60.57;102357.63;4953335;28;20372;-73
2021/03/08 09:52:37;;;;;;;56.28;28.33;;;;;;;7.00;61.20;102365.03;4949709;28;20154;-73
2021/03/08 09:55:09;;;;;;;63.95;29.75;;;;;;;7.10;60.85;102358.38;4965645;28;20534;-73
2021/03/08 09:57:37;;;;;;;61.20;29.90;;;;;;;7.18;60.49;102362.34;4961549;28;20058;-74
2021/03/08 10:00:08;;;;;;;55.00;29.27;;;;;;;7.24;60.41;102370.66;4969077;28;20180;-73
2021/03/08 10:02:34;;;;;;;61.10;28.23;;;;;;;7.33;60.32;102369.25;4938424;28;20082;-74
2021/03/08 10:05:02;;;;;;;57.28;28.08;;;;;;;7.25;60.21;102356.69;4957060;28;20086;-73
2021/03/08 10:07:27;;;;;;;60.78;29.80;;;;;;;7.32;59.92;102365.81;4967499;28;20086;-73
2021/03/08 10:10:14;;;;;;;58.28;29.75;;;;;;;7.34;60.11;102355.31;4962529;28;20077;-73
2021/03/08 10:12:41;;;;;;;55.42;28.17;;;;;;;7.50;60.31;102365.69;4963116;28;20057;-73
2021/03/08 10:15:10;;;;;;;58.60;29.23;;;;;;;7.49;59.23;102358.81;4941583;28;20130;-73
2021/03/08 10:18:02;;;;;;;;;;;;;;;7.57;60.09;102361.81;4940826;28;20051;-74
2021/03/08 10:20:29;;;;;;;63.53;27.80;;;;;;;7.67;59.84;102369.97;4961282;28;20016;-74
2021/03/08 10:22:56;;;;;;;64.28;30.23;;;;;;;7.77;59.60;102365.88;4968068;28;20073;-73
2021/03/08 10:25:23;;;;;;;61.05;29.30;;;;;;;7.90;60.10;102361.59;4962164;28;20129;-74
2021/03/08 10:27:56;;;;;;;54.78;28.02;;;;;;;7.99;59.29;102361.97;4962033;28;20542;-72
2021/03/08 10:30:28;;;;;;;57.00;28.85;;;;;;;8.16;59.65;102374.06;4958541;28;20091;-73
2021/03/08 10:33:01;;;;;;;63.25;29.42;;;;;;;8.20;58.65;102365.09;4959412;28;20063;-73
2021/03/08 10:35:29;;;;;;;57.92;28.75;;;;;;;8.28;58.75;102363.66;4968069;28;20751;-73
2021/03/08 10:38:02;;;;;;;62.28;31.17;;;;;;;8.32;58.08;102359.09;4970238;28;20142;-73
2021/03/08 10:40:29;;;;;;;62.03;31.17;;;;;;;8.44;58.24;102368.00;4961654;28;20059;-72
2021/03/08 10:42:56;;;;;;;59.50;30.30;;;;;;;8.60;58.22;102358.25;4940709;28;20403;-73
2021/03/08 10:45:24;;;;;;;60.17;29.95;;;;;;;8.70;57.42;102364.63;4944582;28;20475;-73
2021/03/08 10:48:03;;;;;;;60.10;30.23;;;;;;;8.72;57.84;102351.41;4959784;28;20055;-73
2021/03/08 10:50:42;;;;;;;53.13;27.92;;;;;;;8.95;58.22;102357.81;4959568;28;20501;-73
2021/03/08 10:53:09;;;;;;;54.60;27.88;;;;;;;8.90;56.42;102359.91;4969831;28;20062;-74
2021/03/08 10:55:35;;;;;;;58.80;28.98;;;;;;;9.00;56.78;102360.97;4960574;28;20055;-73
2021/03/08 10:58:02;;;;;;;57.78;28.90;;;;;;;8.97;56.97;102361.16;4943454;28;20114;-73
2021/03/08 11:00:29;;;;;;;61.15;28.60;;;;;;;9.09;57.10;102364.78;4949207;28;20055;-73
2021/03/08 11:02:56;;;;;;;57.88;28.42;;;;;;;9.18;57.18;102360.75;4966603;28;20145;-73
2021/03/08 11:05:23;;;;;;;49.55;27.40;;;;;;;9.23;55.96;102358.63;4940429;28;20082;-73
2021/03/08 11:07:49;;;;;;;54.83;28.73;;;;;;;9.24;55.53;102363.78;4957792;28;20757;-73
2021/03/08 11:10:15;;;;;;;55.20;28.40;;;;;;;9.21;55.25;102366.63;4956901;28;20207;-74
2021/03/08 11:12:41;;;;;;;54.42;28.90;;;;;;;9.25;56.05;102356.75;4945187;28;20102;-73
2021/03/08 11:15:08;;;;;;;51.67;28.85;;;;;;;9.34;55.44;102357.97;4960853;28;20054;-73
2021/03/08 11:17:42;;;;;;;52.75;27.65;;;;;;;9.28;55.64;102359.19;4969761;28;20514;-73
2021/03/08 11:20:13;;;;;;;52.40;27.42;;;;;;;9.37;55.53;102361.22;4961251;28;20054;-73
2021/03/08 11:22:57;;;;;;;62.17;28.30;;;;;;;9.34;55.34;102371.88;4964170;28;20841;-73
2021/03/08 11:25:29;;;;;;;52.20;28.13;;;;;;;9.45;55.29;102365.94;4963440;28;20511;-74
2021/03/08 11:28:00;;;;;;;51.20;25.55;;;;;;;9.44;54.54;102366.88;4930877;28;20120;-72
2021/03/08 11:30:28;;;;;;;54.47;28.80;;;;;;;9.41;54.90;102361.84;4943527;28;20497;-72
2021/03/08 11:32:57;;;;;;;51.20;26.63;;;;;;;9.58;54.89;102358.94;4959837;28;20553;-73
2021/03/08 11:35:25;;;;;;;54.08;28.10;;;;;;;9.63;55.16;102351.63;4955862;28;20115;-72
2021/03/08 11:38:05;;;;;;;56.30;27.42;;;;;;;9.74;54.21;102356.16;4954871;28;20074;-72
2021/03/08 11:40:32;;;;;;;56.60;28.17;;;;;;;9.89;54.98;102349.03;4962406;28;20109;-73